Time;durP1;ratioP1;P1;durP2;ratioP2;P2;SDS_P1;SDS_P2;PMS_P1;PMS_P2;Temp;Humidity;BMP_temperature;BMP_pressure;BME280_temperature;BME280_humidity;BME280_pressure;Samples;Min_cycle;Max_cycle;Signal;HPM_P1;HPM_P2
2022/09/30 00:01:10;;;;;;;15.03;11.40;;;;;;;3.78;85.19;98937.09;1841469;77;21178;-59
2022/09/30 00:03:39;;;;;;;17.15;11.70;;;;;;;3.78;85.19;98946.55;1836052;76;20982;-59
2022/09/30 00:06:07;;;;;;;13.88;10.72;;;;;;;3.76;85.17;98948.36;1829112;77;20975;-59
2022/09/30 00:08:36;;;;;;;13.80;11.08;;;;;;;3.73;85.35;98935.55;1838214;77;20987;-59
2022/09/30 00:11:06;;;;;;;17.55;11.12;;;;;;;3.76;85.55;98943.19;1840790;76;21013;-59
2022/09/30 00:13:38;;;;;;;13.28;10.82;;;;;;;3.79;85.59;98943.93;1835715;76;21106;-60
2022/09/30 00:16:07;;;;;;;13.70;11.03;;;;;;;3.80;85.62;98943.02;1833736;77;21048;-60
2022/09/30 00:18:35;;;;;;;14.05;10.55;;;;;;;3.80;85.57;98945.61;1834478;77;21658;-60
2022/09/30 00:21:02;;;;;;;;;;;;;;;3.79;85.49;98947.80;1840972;76;21431;-60
2022/09/30 00:23:29;;;;;;;17.10;11.60;;;;;;;3.77;85.45;98948.29;1844966;76;20414;-60
2022/09/30 00:26:02;;;;;;;13.65;11.30;;;;;;;3.74;85.63;98935.48;1838163;77;21067;-60
2022/09/30 00:28:30;;;;;;;14.10;11.10;;;;;;;3.77;85.76;98943.13;1780019;80;21056;-60
2022/09/30 00:33:10;;;;;;;13.08;11.30;;;;;;;3.87;85.86;98938.98;1853756;75;23014;-59
2022/09/30 00:35:37;;;;;;;12.97;10.70;;;;;;;3.73;85.63;98931.22;1828888;77;21115;-59
2022/09/30 00:38:04;;;;;;;14.93;12.37;;;;;;;3.73;85.63;98931.22;1832671;77;21418;-59
2022/09/30 00:40:31;;;;;;;16.45;10.85;;;;;;;3.82;85.79;98953.32;1828915;77;21129;-59
2022/09/30 00:42:59;;;;;;;16.32;12.28;;;;;;;3.83;85.79;98950.28;1830189;77;21099;-59
2022/09/30 00:45:28;;;;;;;12.23;10.93;;;;;;;3.81;86.05;98956.36;1829135;77;21069;-59
2022/09/30 00:48:15;;;;;;;15.48;10.88;;;;;;;3.86;86.20;98961.80;1830169;77;20938;-60
2022/09/30 00:50:45;;;;;;;;;;;;;;;3.86;86.16;98954.05;1833730;77;21119;-60
2022/09/30 00:53:45;;;;;;;13.53;11.20;;;;;;;3.87;86.35;98955.77;1834450;75;20127;-60
2022/09/30 00:56:19;;;;;;;14.40;11.05;;;;;;;3.88;86.34;98958.28;1826300;77;20902;-59
2022/09/30 00:58:53;;;;;;;12.75;11.25;;;;;;;3.89;86.46;98957.37;1833567;75;21011;-60
2022/09/30 01:01:22;;;;;;;13.45;10.98;;;;;;;3.93;86.54;98959.44;1829106;77;21116;-60
2022/09/30 01:05:55;;;;;;;13.55;10.30;;;;;;;3.92;86.38;98965.05;1838900;75;27814;-59
2022/09/30 01:08:23;;;;;;;12.53;9.98;;;;;;;3.89;85.89;98978.48;1818024;78;26700;-59
2022/09/30 01:10:50;;;;;;;13.83;9.83;;;;;;;3.81;85.90;98969.27;1817055;77;21086;-59
2022/09/30 01:13:19;;;;;;;11.50;10.30;;;;;;;3.75;85.93;98973.76;1816094;77;20983;-60
2022/09/30 01:16:06;;;;;;;13.78;9.93;;;;;;;3.66;85.95;98976.19;1818367;77;21070;-60
2022/09/30 01:18:58;;;;;;;12.15;10.10;;;;;;;3.60;86.12;98978.96;1821608;77;28204;-59
2022/09/30 01:22:17;;;;;;;17.87;11.53;;;;;;;3.55;86.14;98983.41;1816242;78;21554;-61
2022/09/30 01:25:20;;;;;;;13.35;11.43;;;;;;;3.54;86.46;98986.90;1815864;78;21087;-60
2022/09/30 01:28:21;;;;;;;16.50;11.48;;;;;;;3.54;86.63;98989.48;1815494;77;20976;-61
2022/09/30 01:31:27;;;;;;;13.50;11.10;;;;;;;3.54;86.76;98994.19;1814425;77;20960;-60
2022/09/30 01:34:17;;;;;;;12.70;11.15;;;;;;;3.53;86.64;98996.84;1821273;77;20963;-60
2022/09/30 01:37:19;;;;;;;12.65;10.88;;;;;;;3.51;86.75;98992.16;1800092;77;21009;-60
2022/09/30 01:40:09;;;;;;;16.27;12.58;;;;;;;3.50;86.80;98995.61;1747619;80;21244;-59
2022/09/30 01:42:44;;;;;;;14.63;11.15;;;;;;;3.47;86.74;98998.28;1742138;80;22138;-61
2022/09/30 01:45:18;;;;;;;13.35;10.70;;;;;;;3.44;86.68;99002.25;1746616;81;21087;-60
2022/09/30 01:47:59;;;;;;;13.40;10.05;;;;;;;3.39;86.66;99005.41;1747295;80;21498;-61
2022/09/30 01:50:49;;;;;;;13.38;11.00;;;;;;;3.31;86.49;99003.91;1745573;80;21078;-61
2022/09/30 01:53:36;;;;;;;12.70;10.68;;;;;;;3.27;86.54;99006.62;1744138;80;21963;-60
2022/09/30 01:56:27;;;;;;;11.48;9.88;;;;;;;3.26;86.72;99000.62;1746275;80;20996;-59
2022/09/30 01:59:11;;;;;;;11.22;9.43;;;;;;;3.27;86.84;99002.30;1746861;80;20989;-61
2022/09/30 02:01:46;;;;;;;13.25;10.63;;;;;;;3.26;86.98;99005.78;1746149;80;21076;-60
2022/09/30 02:04:27;;;;;;;12.65;11.15;;;;;;;3.25;86.97;98995.48;1743842;80;21179;-60
2022/09/30 02:06:59;;;;;;;17.40;11.95;;;;;;;3.29;87.02;99003.11;1746489;80;21109;-60
2022/09/30 02:09:35;;;;;;;16.12;11.63;;;;;;;3.31;87.36;99001.34;1708539;83;21693;-60
2022/09/30 02:12:05;;;;;;;16.50;11.50;;;;;;;3.40;87.33;99000.66;1664258;84;21026;-60
2022/09/30 02:14:47;;;;;;;13.08;11.65;;;;;;;3.42;87.44;99005.31;1723052;80;21006;-60
2022/09/30 02:17:40;;;;;;;13.93;12.13;;;;;;;3.47;87.58;99000.86;1739464;81;21052;-61
2022/09/30 02:20:25;;;;;;;14.40;11.93;;;;;;;3.54;87.69;99002.39;1750734;80;21131;-59
2022/09/30 02:23:09;;;;;;;15.23;11.40;;;;;;;3.62;87.59;99008.16;1755136;80;28298;-61
2022/09/30 02:25:44;;;;;;;15.32;11.73;;;;;;;3.67;87.59;99002.84;1749704;80;21008;-60
2022/09/30 02:28:16;;;;;;;14.15;11.90;;;;;;;3.72;87.61;99017.30;1753223;80;20982;-61
2022/09/30 02:30:47;;;;;;;14.80;11.80;;;;;;;3.78;87.66;99017.14;1751621;81;20883;-61
2022/09/30 02:33:22;;;;;;;15.25;11.08;;;;;;;3.86;87.77;99018.62;1753191;81;22117;-61
2022/09/30 02:36:02;;;;;;;12.78;10.60;;;;;;;3.88;87.76;99016.84;1750935;80;21000;-61
2022/09/30 02:38:36;;;;;;;12.68;10.58;;;;;;;3.88;87.76;99020.27;1729092;81;21108;-61
2022/09/30 02:41:10;;;;;;;15.65;11.12;;;;;;;3.93;87.77;99026.13;1749692;80;20909;-61
2022/09/30 02:43:40;;;;;;;15.00;10.93;;;;;;;3.97;87.79;99021.70;1747057;81;20993;-61
2022/09/30 02:46:32;;;;;;;12.20;10.10;;;;;;;3.99;87.75;99017.34;1747443;80;22034;-61
2022/09/30 02:49:13;;;;;;;13.03;11.38;;;;;;;3.99;87.83;99016.89;1747201;81;20942;-60
2022/09/30 02:51:54;;;;;;;13.53;11.68;;;;;;;4.00;87.92;99021.61;1747556;81;20989;-60
2022/09/30 02:54:32;;;;;;;13.55;11.70;;;;;;;4.05;87.95;99021.02;1743667;81;21087;-59
2022/09/30 02:57:10;;;;;;;11.33;10.13;;;;;;;4.07;87.99;99016.66;1752090;80;21696;-60
2022/09/30 02:59:37;;;;;;;16.35;10.65;;;;;;;4.06;88.03;99013.66;1748680;80;21097;-60
2022/09/30 03:02:03;;;;;;;17.20;11.25;;;;;;;4.02;88.06;99014.66;1759317;80;21004;-61
2022/09/30 03:04:34;;;;;;;14.83;10.15;;;;;;;4.01;88.03;99025.91;1759972;80;20944;-60
2022/09/30 03:07:01;;;;;;;12.95;9.58;;;;;;;3.95;87.96;99020.91;1770149;78;20953;-59
2022/09/30 03:09:28;;;;;;;11.65;8.93;;;;;;;3.85;87.60;99027.27;1768123;80;20949;-60
2022/09/30 03:12:09;;;;;;;14.83;9.78;;;;;;;3.70;87.37;99038.47;1770372;78;21500;-60
2022/09/30 03:14:49;;;;;;;11.75;9.40;;;;;;;3.60;87.56;99035.75;1767318;78;21468;-60
2022/09/30 03:17:39;;;;;;;11.95;10.63;;;;;;;3.56;87.79;99039.33;1770253;79;21009;-60
2022/09/30 03:21:01;;;;;;;11.97;10.68;;;;;;;3.53;88.11;99039.42;1768230;79;21518;-60
2022/09/30 03:24:11;;;;;;;13.18;11.50;;;;;;;3.55;88.36;99036.33;1765640;79;20983;-61
2022/09/30 03:27:04;;;;;;;15.63;10.40;;;;;;;3.59;88.45;99040.08;1771796;79;21528;-60
2022/09/30 03:30:01;;;;;;;14.85;10.93;;;;;;;3.61;88.54;99046.47;1769167;80;21579;-60
2022/09/30 03:32:56;;;;;;;18.00;12.55;;;;;;;3.63;88.71;99040.82;1764292;78;21148;-60
2022/09/30 03:35:47;;;;;;;15.60;12.63;;;;;;;3.65;88.68;99046.80;1770033;80;21071;-60
2022/09/30 03:38:34;;;;;;;18.07;12.00;;;;;;;3.65;88.60;99042.08;1769209;79;20990;-60
2022/09/30 03:41:24;;;;;;;15.23;13.20;;;;;;;3.64;88.67;99039.95;1770897;78;21116;-61
2022/09/30 03:44:01;;;;;;;18.52;11.78;;;;;;;3.63;88.76;99043.41;1770702;79;21006;-61
2022/09/30 03:46:50;;;;;;;14.40;11.68;;;;;;;3.65;88.71;99040.79;1767183;79;20994;-61
2022/09/30 03:49:24;;;;;;;15.18;12.40;;;;;;;3.64;88.68;99045.11;1761123;78;20986;-61
2022/09/30 03:51:52;;;;;;;18.52;14.23;;;;;;;3.59;88.72;99041.82;1766031;78;21009;-61
2022/09/30 03:54:19;;;;;;;13.62;11.60;;;;;;;3.57;88.78;99042.30;1771342;78;21078;-61
2022/09/30 03:57:10;;;;;;;15.63;13.62;;;;;;;3.55;88.67;99041.05;1856851;74;23327;-59
2022/09/30 03:59:36;;;;;;;23.65;11.00;;;;;;;3.47;88.42;99049.91;1829653;77;21082;-60
2022/09/30 04:02:04;;;;;;;15.33;10.53;;;;;;;3.43;88.39;99061.22;1838277;77;21155;-59
2022/09/30 04:04:30;;;;;;;13.78;10.90;;;;;;;3.34;88.41;99063.17;1830683;77;26189;-60
2022/09/30 04:06:57;;;;;;;13.83;11.08;;;;;;;3.33;88.61;99063.20;1835053;77;21620;-60
2022/09/30 04:09:26;;;;;;;12.95;11.08;;;;;;;3.31;88.60;99065.84;1832890;76;20993;-60
2022/09/30 04:11:52;;;;;;;13.50;11.28;;;;;;;3.30;88.67;99071.87;1833400;77;20973;-60
2022/09/30 04:14:19;;;;;;;15.98;11.48;;;;;;;3.30;88.73;99075.74;1835790;77;21428;-60
2022/09/30 04:16:46;;;;;;;14.18;10.63;;;;;;;3.29;88.85;99070.19;1833117;77;20996;-60
2022/09/30 04:19:12;;;;;;;12.30;10.28;;;;;;;3.30;88.85;99069.29;1777159;78;21084;-60
2022/09/30 04:21:39;;;;;;;14.53;10.77;;;;;;;3.31;88.89;99069.71;1779211;80;21064;-60
2022/09/30 04:24:07;;;;;;;11.35;9.70;;;;;;;3.33;89.01;99073.52;1777830;78;20993;-60
2022/09/30 04:26:34;;;;;;;16.48;11.70;;;;;;;3.33;89.03;99070.52;1764208;78;21109;-60
2022/09/30 04:29:00;;;;;;;14.43;11.80;;;;;;;3.34;89.14;99077.81;1784431;79;21531;-61
2022/09/30 04:31:27;;;;;;;14.83;11.77;;;;;;;3.36;89.24;99080.75;1783595;79;20942;-61
2022/09/30 04:33:55;;;;;;;17.60;11.50;;;;;;;3.39;89.28;99087.98;1783857;79;21037;-60
2022/09/30 04:36:23;;;;;;;15.95;11.25;;;;;;;3.44;89.29;99095.16;1779468;79;21018;-60
2022/09/30 04:38:51;;;;;;;14.90;12.13;;;;;;;3.44;89.28;99102.91;1776539;78;22279;-60
2022/09/30 04:41:19;;;;;;;17.42;15.20;;;;;;;3.47;89.32;99105.39;1777927;79;21055;-60
2022/09/30 04:43:47;;;;;;;20.02;14.63;;;;;;;3.50;89.45;99109.17;1781739;79;21081;-60
2022/09/30 04:46:20;;;;;;;19.32;14.10;;;;;;;3.54;89.50;99110.80;1779991;79;21537;-61
2022/09/30 04:48:47;;;;;;;15.93;14.23;;;;;;;3.58;89.54;99114.97;1781949;79;21530;-59
2022/09/30 04:51:20;;;;;;;14.50;12.98;;;;;;;3.61;89.56;99116.17;1791535;79;21120;-60
2022/09/30 04:53:48;;;;;;;18.25;13.05;;;;;;;3.67;89.64;99119.89;1803738;78;21660;-59
2022/09/30 04:56:15;;;;;;;18.12;11.57;;;;;;;3.70;89.58;99119.80;1793650;78;21167;-59
2022/09/30 04:58:44;;;;;;;15.60;11.22;;;;;;;3.76;89.57;99117.03;1796479;78;20955;-60
2022/09/30 05:01:20;;;;;;;17.55;11.25;;;;;;;3.81;89.63;99117.75;1802174;78;20898;-60
2022/09/30 05:03:46;;;;;;;20.32;11.05;;;;;;;3.88;89.64;99120.14;1778102;78;21624;-61
2022/09/30 05:06:13;;;;;;;11.97;10.65;;;;;;;3.87;89.13;99113.30;1771280;80;21032;-60
2022/09/30 05:08:42;;;;;;;13.22;9.98;;;;;;;3.74;88.72;99113.64;1791056;79;21059;-61
2022/09/30 05:11:16;;;;;;;12.20;10.18;;;;;;;3.69;88.99;99125.84;1791797;79;21076;-61
2022/09/30 05:13:44;;;;;;;11.30;10.20;;;;;;;3.72;89.29;99124.45;1791149;79;21762;-61
2022/09/30 05:16:13;;;;;;;15.93;10.55;;;;;;;3.76;89.36;99126.08;1770019;80;21721;-61
2022/09/30 05:18:44;;;;;;;19.70;11.00;;;;;;;3.83;89.34;99132.34;1787124;79;21092;-61
2022/09/30 05:21:09;;;;;;;16.73;11.43;;;;;;;3.86;89.22;99137.41;1791616;78;20946;-61
2022/09/30 05:23:37;;;;;;;12.70;11.40;;;;;;;3.89;89.37;99133.45;1773602;79;21509;-61
2022/09/30 05:26:04;;;;;;;14.00;11.28;;;;;;;3.95;89.57;99131.97;1772359;80;21009;-62
2022/09/30 05:28:32;;;;;;;16.82;11.53;;;;;;;4.05;89.62;99135.98;1758582;80;21075;-62
2022/09/30 05:31:02;;;;;;;18.05;12.15;;;;;;;4.16;89.83;99137.80;1760877;79;21010;-63
2022/09/30 05:33:29;;;;;;;14.20;12.70;;;;;;;4.29;89.98;99141.31;1774137;79;21090;-60
2022/09/30 05:36:00;;;;;;;16.60;12.98;;;;;;;4.41;89.99;99140.92;1776105;79;20956;-61
2022/09/30 05:38:27;;;;;;;14.98;12.05;;;;;;;4.54;89.96;99139.64;1764541;80;21036;-61
2022/09/30 05:40:53;;;;;;;17.52;13.45;;;;;;;4.63;90.06;99140.63;1767702;80;21119;-61
2022/09/30 05:45:54;;;;;;;16.45;13.15;;;;;;;4.83;89.98;99133.52;1834343;76;22591;-59
2022/09/30 05:48:23;;;;;;;15.80;13.32;;;;;;;4.90;89.90;99141.90;1807965;78;20935;-59
2022/09/30 05:50:56;;;;;;;14.95;11.22;;;;;;;4.95;90.00;99138.72;1807646;78;22084;-59
2022/09/30 05:53:23;;;;;;;14.83;11.70;;;;;;;5.06;89.92;99148.71;1745730;81;21821;-60
2022/09/30 05:55:51;;;;;;;16.30;13.15;;;;;;;5.06;89.91;99137.91;1757457;80;21025;-60
2022/09/30 05:58:18;;;;;;;;;;;;;;;5.10;90.02;99153.73;1760794;81;20946;-60
2022/09/30 06:00:46;;;;;;;;;;;;;;;5.15;90.28;99150.55;1754832;81;20152;-60
2022/09/30 06:03:14;;;;;;;20.82;13.90;;;;;;;5.30;90.58;99156.09;1757251;81;21195;-60
2022/09/30 06:05:41;;;;;;;14.35;11.88;;;;;;;5.46;90.63;99162.43;1752401;81;20990;-60
2022/09/30 06:08:08;;;;;;;14.45;11.35;;;;;;;5.58;90.29;99161.98;1752034;81;21080;-59
2022/09/30 06:10:36;;;;;;;18.30;11.97;;;;;;;5.74;90.05;99173.07;1750153;80;21507;-60
2022/09/30 06:13:03;;;;;;;15.88;11.05;;;;;;;6.03;90.06;99180.66;1752328;81;21629;-60
2022/09/30 06:15:30;;;;;;;19.05;10.35;;;;;;;6.54;90.22;99181.77;1757115;81;22035;-59
2022/09/30 06:17:57;;;;;;;13.30;8.35;;;;;;;7.11;90.13;99182.90;1758311;81;21044;-60
2022/09/30 06:20:24;;;;;;;12.63;8.47;;;;;;;7.56;89.76;99184.45;1754911;81;21035;-60
2022/09/30 06:22:53;;;;;;;18.32;10.45;;;;;;;8.01;89.69;99194.59;1756471;81;21041;-61
2022/09/30 06:25:21;;;;;;;22.37;10.23;;;;;;;8.45;89.51;99185.66;1756324;81;21009;-61
2022/09/30 06:27:49;;;;;;;17.02;10.28;;;;;;;8.88;89.43;99191.44;1768979;80;21415;-60
2022/09/30 06:30:15;;;;;;;;;;;;;;;9.12;88.85;99190.20;1743435;81;21023;-60
2022/09/30 06:32:42;;;;;;;20.65;10.25;;;;;;;9.26;88.45;99191.28;1742547;80;20446;-60
2022/09/30 06:35:09;;;;;;;11.48;8.65;;;;;;;9.29;88.33;99193.73;1771518;79;20950;-61
2022/09/30 06:37:37;;;;;;;16.80;9.63;;;;;;;9.40;88.58;99194.87;1774018;79;20957;-61
2022/09/30 06:40:06;;;;;;;11.03;7.92;;;;;;;9.55;88.87;99197.17;1773869;79;21099;-60
2022/09/30 06:42:33;;;;;;;12.30;7.58;;;;;;;9.88;88.95;99197.62;1778553;80;21115;-61
2022/09/30 06:45:00;;;;;;;;;;;;;;;10.15;88.85;99199.70;1773763;78;20982;-61
2022/09/30 06:47:27;;;;;;;10.55;8.35;;;;;;;10.52;89.25;99196.78;1764917;80;20568;-61
2022/09/30 06:49:57;;;;;;;10.65;8.13;;;;;;;10.75;88.99;99205.10;1766627;80;21103;-61
2022/09/30 06:52:22;;;;;;;12.13;8.05;;;;;;;11.02;89.27;99206.63;1799156;78;21080;-62
2022/09/30 06:54:50;;;;;;;11.48;8.48;;;;;;;11.12;89.11;99207.79;1800315;78;21073;-61
2022/09/30 06:57:21;;;;;;;;;;;;;;;11.28;89.47;99202.97;1804340;78;20988;-61
2022/09/30 06:59:45;;;;;;;17.05;8.80;;;;;;;11.41;88.05;99206.55;1797118;78;20420;-61
2022/09/30 07:02:12;;;;;;;9.93;8.18;;;;;;;11.49;88.16;99213.95;1798559;78;21532;-61
2022/09/30 07:04:39;;;;;;;12.45;7.47;;;;;;;11.77;88.89;99206.13;1796579;78;21077;-62
2022/09/30 07:07:06;;;;;;;12.33;8.30;;;;;;;11.96;88.83;99208.95;1793350;78;21597;-61
2022/09/30 07:09:32;;;;;;;9.95;7.87;;;;;;;12.11;88.53;99206.72;1807647;78;21333;-61
2022/09/30 07:11:59;;;;;;;12.23;7.65;;;;;;;12.27;88.86;99212.69;1796632;78;21526;-61
2022/09/30 07:14:25;;;;;;;15.93;8.80;;;;;;;12.46;88.97;99209.77;1796398;78;20962;-61
2022/09/30 07:16:52;;;;;;;11.88;7.53;;;;;;;12.53;88.55;99212.83;1801291;78;21667;-61
2022/09/30 07:19:21;;;;;;;12.95;8.23;;;;;;;12.54;88.38;99217.11;1804546;78;20945;-61
2022/09/30 07:21:49;;;;;;;12.45;7.80;;;;;;;12.60;89.08;99219.34;1795577;78;21035;-61
2022/09/30 07:24:17;;;;;;;12.43;8.68;;;;;;;12.56;88.71;99223.11;1809168;78;21510;-60
2022/09/30 07:26:44;;;;;;;11.63;8.48;;;;;;;12.58;89.56;99223.86;1798250;78;21544;-60
2022/09/30 07:29:12;;;;;;;11.57;8.45;;;;;;;12.82;90.32;99233.70;1810955;78;21836;-60
2022/09/30 07:31:39;;;;;;;9.60;8.53;;;;;;;12.99;90.11;99236.06;1804662;78;21015;-60
2022/09/30 07:34:08;;;;;;;12.10;9.15;;;;;;;13.07;89.96;99240.34;1809706;78;21244;-60
2022/09/30 07:36:38;;;;;;;17.40;11.95;;;;;;;13.28;90.38;99238.61;1795596;78;21089;-61
2022/09/30 07:39:08;;;;;;;20.37;14.33;;;;;;;13.42;90.44;99247.23;1774557;78;20968;-60
2022/09/30 07:41:39;;;;;;;14.68;11.65;;;;;;;13.60;90.33;99249.56;1750103;80;21454;-60
2022/09/30 07:44:13;;;;;;;15.88;10.98;;;;;;;13.63;89.51;99247.56;1744441;81;21582;-61
2022/09/30 07:46:41;;;;;;;11.35;9.45;;;;;;;13.72;89.67;99250.52;1812900;77;21514;-60
2022/09/30 07:49:13;;;;;;;10.72;8.23;;;;;;;13.68;88.57;99259.55;1806977;78;21543;-60
2022/09/30 07:51:45;;;;;;;10.38;7.58;;;;;;;13.60;88.65;99258.27;1802103;78;20967;-61
2022/09/30 07:54:18;;;;;;;7.72;6.53;;;;;;;13.63;88.84;99256.74;1807565;78;22011;-62
2022/09/30 07:56:45;;;;;;;8.25;6.42;;;;;;;13.69;88.77;99248.10;1803054;78;20959;-62
2022/09/30 07:59:13;;;;;;;8.33;6.87;;;;;;;13.76;88.78;99244.97;1812849;77;21029;-63
2022/09/30 08:01:40;;;;;;;8.45;6.87;;;;;;;13.80;88.55;99254.30;1771549;80;21078;-63
2022/09/30 08:04:09;;;;;;;6.50;5.90;;;;;;;13.88;87.53;99256.41;1762148;81;21167;-63
2022/09/30 08:06:40;;;;;;;8.20;5.97;;;;;;;13.76;87.23;99254.63;1762242;81;22014;-63
2022/09/30 08:09:07;;;;;;;8.75;5.55;;;;;;;13.74;86.99;99257.81;1759214;81;20971;-62
2022/09/30 08:11:35;;;;;;;;;;;;;;;13.77;87.24;99261.55;1767177;81;21082;-61
2022/09/30 08:14:05;;;;;;;6.17;5.42;;;;;;;13.84;87.25;99265.45;1753167;81;20165;-62
2022/09/30 08:16:32;;;;;;;5.70;5.00;;;;;;;13.95;87.38;99268.17;1759425;81;20961;-62
2022/09/30 08:19:01;;;;;;;6.45;5.78;;;;;;;14.06;86.90;99260.88;1762021;79;21078;-62
2022/09/30 08:21:28;;;;;;;7.42;5.62;;;;;;;14.10;87.12;99264.48;1761569;79;21035;-62
2022/09/30 08:23:56;;;;;;;9.13;5.55;;;;;;;14.27;87.12;99272.98;1763736;81;21517;-63
2022/09/30 08:26:23;;;;;;;;;;;;;;;14.34;86.86;99268.99;1765470;81;21015;-63
2022/09/30 08:28:50;;;;;;;5.90;4.85;;;;;;;14.40;86.16;99273.81;1750045;81;20172;-63
2022/09/30 08:31:23;;;;;;;4.85;4.17;;;;;;;14.42;86.30;99275.83;1755172;81;22017;-61
2022/09/30 08:33:49;;;;;;;5.25;4.75;;;;;;;14.45;86.10;99271.70;1759485;81;20908;-60
2022/09/30 08:36:21;;;;;;;6.42;4.45;;;;;;;14.52;85.83;99278.22;1754036;79;20955;-61
2022/09/30 08:38:49;;;;;;;4.50;4.10;;;;;;;14.52;85.59;99279.53;1762572;81;21015;-59
2022/09/30 08:41:42;;;;;;;5.70;4.28;;;;;;;14.49;85.29;99273.16;1759269;79;20975;-61
2022/09/30 08:44:34;;;;;;;4.50;4.10;;;;;;;14.53;85.13;99272.01;1750956;81;23246;-60
2022/09/30 08:47:43;;;;;;;5.50;4.08;;;;;;;14.60;85.16;99274.23;1756015;81;21065;-59
2022/09/30 08:50:50;;;;;;;5.40;4.33;;;;;;;14.77;84.88;99283.89;1754319;79;21304;-61
2022/09/30 08:53:30;;;;;;;5.37;4.10;;;;;;;14.75;84.38;99287.57;1752683;79;20955;-59
2022/09/30 08:56:01;;;;;;;8.58;4.50;;;;;;;14.78;83.79;99286.03;1761439;81;21532;-61
2022/09/30 08:58:35;;;;;;;6.37;4.58;;;;;;;14.69;83.83;99284.08;1731515;81;21011;-60
2022/09/30 09:01:33;;;;;;;5.03;4.40;;;;;;;14.73;84.02;99283.75;1753927;81;20979;-61
2022/09/30 09:04:02;;;;;;;5.45;4.47;;;;;;;14.75;83.81;99283.63;1751303;79;21524;-60
2022/09/30 09:07:08;;;;;;;4.97;4.20;;;;;;;14.82;83.60;99288.83;1759779;81;20976;-60
2022/09/30 09:10:08;;;;;;;4.15;3.60;;;;;;;14.80;83.10;99291.20;1751855;80;21051;-62
2022/09/30 09:12:57;;;;;;;4.33;3.92;;;;;;;14.84;82.95;99290.84;1753926;81;22108;-61
2022/09/30 09:15:50;;;;;;;4.75;3.00;;;;;;;14.84;82.43;99286.91;1766632;81;21018;-62
2022/09/30 09:18:52;;;;;;;4.67;3.47;;;;;;;14.83;82.37;99291.80;1762916;79;20958;-61
2022/09/30 09:21:45;;;;;;;4.75;4.05;;;;;;;14.80;82.10;99294.66;1763203;81;21557;-60
2022/09/30 09:24:17;;;;;;;4.78;3.55;;;;;;;14.83;81.96;99298.38;1747342;81;21094;-60
2022/09/30 09:26:44;;;;;;;4.87;3.42;;;;;;;14.77;81.78;99296.19;1753228;79;21057;-60
2022/09/30 09:29:43;;;;;;;4.75;3.50;;;;;;;14.81;81.95;99300.75;1760490;79;20966;-60
2022/09/30 09:32:16;;;;;;;6.40;4.20;;;;;;;14.82;81.25;99296.71;1676649;84;20895;-60
2022/09/30 09:34:45;;;;;;;6.28;5.10;;;;;;;14.61;80.10;99299.54;1687452;82;20960;-61
2022/09/30 09:40:28;;;;;;;4.53;4.12;;;;;;;14.52;80.63;99303.17;1676945;83;21919;-60
2022/09/30 09:43:20;;;;;;;5.05;4.55;;;;;;;14.62;81.05;99307.78;1672409;83;21553;-60
2022/09/30 09:46:01;;;;;;;4.87;4.40;;;;;;;14.82;81.25;99307.22;1680934;81;20891;-61
2022/09/30 09:48:29;;;;;;;5.37;4.00;;;;;;;14.91;80.22;99299.98;1662391;85;21721;-61
2022/09/30 09:51:22;;;;;;;5.50;3.60;;;;;;;14.92;80.02;99295.08;1642942;85;21050;-61
2022/09/30 09:53:52;;;;;;;6.62;3.80;;;;;;;14.73;79.38;99292.95;1654753;85;21068;-63
2022/09/30 09:56:22;;;;;;;4.53;3.70;;;;;;;14.75;79.80;99284.95;1643107;87;20943;-61
2022/09/30 09:59:07;;;;;;;6.25;3.60;;;;;;;14.92;79.92;99287.20;1642810;87;21591;-61
2022/09/30 10:01:37;;;;;;;3.95;3.47;;;;;;;14.98;78.33;99289.86;1642082;87;21101;-60
2022/09/30 10:04:26;;;;;;;5.87;3.40;;;;;;;14.83;78.78;99292.28;1669362;85;20978;-61
2022/09/30 10:07:00;;;;;;;4.00;3.60;;;;;;;14.97;79.12;99298.22;1672880;84;21848;-61
2022/09/30 10:09:37;;;;;;;4.45;3.30;;;;;;;15.06;78.85;99286.68;1733941;81;20942;-61
2022/09/30 10:12:12;;;;;;;3.70;3.33;;;;;;;15.16;78.57;99282.44;1759421;81;21541;-61
2022/09/30 10:14:46;;;;;;;5.25;3.62;;;;;;;15.36;78.44;99284.44;1737055;81;21002;-61
2022/09/30 10:17:29;;;;;;;4.42;3.45;;;;;;;15.45;78.22;99289.00;1737138;80;20938;-62
2022/09/30 10:20:22;;;;;;;4.30;3.02;;;;;;;15.39;77.90;99289.47;1746150;81;22369;-61
2022/09/30 10:22:49;;;;;;;4.12;3.40;;;;;;;15.38;78.11;99286.97;1740919;81;20942;-61
2022/09/30 10:25:23;;;;;;;4.75;4.20;;;;;;;15.64;78.21;99287.64;1746554;80;20911;-62
2022/09/30 10:28:00;;;;;;;4.10;3.50;;;;;;;15.71;77.23;99282.33;1732262;82;20887;-61
2022/09/30 10:30:34;;;;;;;4.00;3.60;;;;;;;15.67;77.38;99276.88;1763746;81;20907;-61
2022/09/30 10:33:03;;;;;;;4.25;2.62;;;;;;;15.71;77.30;99283.64;1756795;81;21317;-61
2022/09/30 10:35:30;;;;;;;5.30;3.55;;;;;;;15.71;75.72;99278.38;1758327;81;20938;-61
2022/09/30 10:37:58;;;;;;;;;;;;;;;15.70;76.10;99281.94;1770364;79;20934;-61
2022/09/30 10:40:29;;;;;;;4.25;3.85;;;;;;;15.65;75.47;99284.05;1751014;80;20114;-61
2022/09/30 10:42:57;;;;;;;4.28;2.80;;;;;;;15.51;75.93;99281.61;1727476;82;21129;-61
2022/09/30 10:45:32;;;;;;;3.05;2.40;;;;;;;15.73;76.56;99280.39;1797063;78;20988;-61
2022/09/30 10:48:05;;;;;;;2.40;1.70;;;;;;;15.89;76.04;99286.66;1814100;78;21098;-61
2022/09/30 10:50:32;;;;;;;4.22;2.50;;;;;;;16.15;76.11;99276.75;1816521;78;21183;-61
2022/09/30 10:53:07;;;;;;;5.12;2.58;;;;;;;16.43;76.14;99279.39;1745554;80;20998;-61
2022/09/30 10:55:41;;;;;;;2.20;1.70;;;;;;;16.72;75.99;99277.55;1753809;79;20971;-61
2022/09/30 10:58:31;;;;;;;2.85;1.85;;;;;;;16.91;75.34;99273.00;1750180;81;21126;-61
2022/09/30 11:01:26;;;;;;;2.45;2.22;;;;;;;16.98;75.15;99271.55;1747019;81;21487;-62
2022/09/30 11:04:29;;;;;;;2.12;1.92;;;;;;;17.01;74.61;99266.03;1759328;79;21114;-61
2022/09/30 11:07:12;;;;;;;3.37;2.02;;;;;;;16.90;73.88;99276.13;1746702;80;20969;-61
2022/09/30 11:09:47;;;;;;;4.28;2.05;;;;;;;17.04;74.21;99276.33;1743457;81;21120;-61
2022/09/30 11:12:20;;;;;;;5.10;2.55;;;;;;;17.01;73.77;99280.54;1754902;81;22113;-62
2022/09/30 11:14:55;;;;;;;5.60;2.10;;;;;;;16.75;73.37;99280.80;1748322;81;20994;-62
2022/09/30 11:17:30;;;;;;;3.47;2.42;;;;;;;16.50;73.10;99291.13;1752964;80;20946;-62
2022/09/30 11:20:14;;;;;;;3.87;2.40;;;;;;;16.33;73.07;99285.87;1755565;80;21088;-61
2022/09/30 11:23:04;;;;;;;3.40;2.50;;;;;;;16.16;72.87;99282.84;1751868;81;21566;-60
2022/09/30 11:26:03;;;;;;;2.75;2.45;;;;;;;15.96;72.63;99289.65;1754462;81;21083;-62
2022/09/30 11:28:55;;;;;;;4.80;2.92;;;;;;;15.84;72.74;99287.00;1755242;80;21413;-61
2022/09/30 11:31:53;;;;;;;3.15;2.37;;;;;;;15.78;72.51;99286.63;1743640;81;20978;-61
2022/09/30 11:34:25;;;;;;;5.95;2.08;;;;;;;15.82;72.55;99279.72;1771449;80;21078;-60
2022/09/30 11:37:03;;;;;;;2.67;2.17;;;;;;;15.91;72.79;99283.89;1715174;81;20947;-61
2022/09/30 11:39:44;;;;;;;2.40;1.67;;;;;;;15.99;72.46;99280.20;1744590;81;21217;-61
2022/09/30 11:42:19;;;;;;;1.62;1.47;;;;;;;16.18;72.22;99276.51;1768821;80;21523;-63
2022/09/30 11:44:46;;;;;;;5.28;2.70;;;;;;;16.15;70.84;99279.38;1776203;80;21026;-60
2022/09/30 11:47:50;;;;;;;3.67;2.12;;;;;;;15.83;70.92;99282.70;1737126;81;20939;-62
2022/09/30 11:50:40;;;;;;;4.83;2.17;;;;;;;15.79;71.32;99277.77;1751608;80;20886;-62
2022/09/30 11:53:30;;;;;;;3.75;1.75;;;;;;;15.73;71.24;99281.70;1745509;81;21102;-60
2022/09/30 11:56:05;;;;;;;3.12;1.77;;;;;;;15.79;71.20;99278.61;1748098;80;20957;-61
2022/09/30 11:58:36;;;;;;;2.98;1.70;;;;;;;15.83;70.89;99285.33;1752611;80;20955;-61
2022/09/30 12:01:36;;;;;;;3.55;2.02;;;;;;;15.78;70.61;99276.11;1728783;82;20959;-60
2022/09/30 12:04:08;;;;;;;2.33;1.60;;;;;;;15.74;70.47;99283.41;1724298;81;21446;-61
2022/09/30 12:06:55;;;;;;;2.98;1.80;;;;;;;15.74;70.65;99276.83;1733848;82;21054;-61
2022/09/30 12:09:27;;;;;;;4.08;1.90;;;;;;;16.00;70.58;99270.05;1732316;82;20946;-61
2022/09/30 12:11:59;;;;;;;2.02;1.82;;;;;;;16.23;70.50;99273.53;1735504;82;20923;-62
2022/09/30 12:14:34;;;;;;;3.30;2.08;;;;;;;16.47;70.25;99278.69;1732134;82;20974;-62
2022/09/30 12:17:05;;;;;;;3.62;1.70;;;;;;;16.60;70.25;99276.73;1731356;81;21464;-62
2022/09/30 12:19:43;;;;;;;1.30;1.17;;;;;;;16.72;69.31;99273.14;1732435;82;21779;-61